Terminal Aerodrome Forecast
Issued by NWS

Home | Current Version | Previous Version | Text Only | Print | Product List | Glossary On
Versions: 1 2 3 4 5 6 7 8 9 10 11 12 13 14 15 16 17 18 19 20 21
780
FTUS43 KICT 180520
TAFHUT
TAF
KHUT 180520Z 1806/1906 16004KT P6SM SKC
     FM181000 17012KT P6SM SCT250 WS020/19045KT
     FM181400 18018G24KT P6SM SCT250
     FM181700 19026G36KT P6SM SCT250
     FM190100 18022G30KT P6SM SCT140
     FM190400 18020G28KT P6SM SCT040=

USA.gov is the U.S. government's official web portal to all federal, state and local government web resources and services.